createdAt,value
2023-05-24T00:00:02.955Z,0
2023-05-24T00:05:03.119Z,0
2023-05-24T00:10:02.466Z,0
2023-05-24T00:15:02.590Z,0
2023-05-24T00:20:07.421Z,0
2023-05-24T00:25:02.417Z,0
2023-05-24T00:30:03.236Z,0
2023-05-24T00:35:03.079Z,0
2023-05-24T00:40:02.800Z,0
2023-05-24T00:45:03.027Z,0
2023-05-24T00:50:02.773Z,0
2023-05-24T00:55:03.047Z,0
2023-05-24T01:00:03.447Z,0
2023-05-24T01:05:03.043Z,0
2023-05-24T01:10:03.044Z,0
2023-05-24T01:15:03.421Z,0
2023-05-24T01:20:03.191Z,0
2023-05-24T01:25:02.925Z,0
2023-05-24T01:30:02.655Z,0
2023-05-24T01:35:02.609Z,0
2023-05-24T01:40:02.934Z,0
2023-05-24T01:45:02.636Z,0
2023-05-24T01:50:02.421Z,0
2023-05-24T01:55:03.810Z,0
2023-05-24T02:00:02.935Z,0
2023-05-24T02:05:02.867Z,0
2023-05-24T02:10:02.646Z,0
2023-05-24T02:15:03.384Z,0
2023-05-24T02:20:03.305Z,0.11
2023-05-24T02:25:03.236Z,0.23
2023-05-24T02:30:03.124Z,0.68
2023-05-24T02:35:02.740Z,1.47
2023-05-24T02:40:02.484Z,2.72
2023-05-24T02:45:03.399Z,4.64
2023-05-24T02:50:03.377Z,8.26
2023-05-24T02:55:03.829Z,5
2023-05-24T03:00:02.881Z,10
2023-05-24T03:05:02.719Z,18.33
2023-05-24T03:10:02.591Z,30
2023-05-24T03:15:02.520Z,48.33
2023-05-24T03:20:03.464Z,81.67
2023-05-24T03:25:02.971Z,121.67
2023-05-24T03:30:02.951Z,181.67
2023-05-24T03:35:02.595Z,245
2023-05-24T03:40:03.046Z,310
2023-05-24T03:45:02.691Z,368.33
2023-05-24T03:50:03.306Z,461.67
2023-05-24T03:55:03.330Z,658.33
2023-05-24T04:00:02.993Z,945
2023-05-24T04:05:02.637Z,1040
2023-05-24T04:10:02.683Z,1050
2023-05-24T04:15:02.604Z,983.33
2023-05-24T04:20:03.740Z,981.67
2023-05-24T04:25:03.151Z,1011.67
2023-05-24T04:30:02.752Z,1161.67
2023-05-24T04:35:02.555Z,1271.67
2023-05-24T04:40:02.874Z,1340
2023-05-24T04:45:02.720Z,1310
2023-05-24T04:50:03.024Z,1361.67
2023-05-24T04:55:03.261Z,1630
2023-05-24T05:00:02.569Z,1890
2023-05-24T05:05:03.175Z,1378.33
2023-05-24T05:10:02.764Z,871.67
2023-05-24T05:15:02.576Z,1231.67
2023-05-24T05:20:02.654Z,1506.67
2023-05-24T05:25:03.368Z,1593.33
2023-05-24T05:30:02.565Z,1315
2023-05-24T05:35:03.227Z,1681.67
2023-05-24T05:40:03.165Z,1706.67
2023-05-24T05:45:02.936Z,2280
2023-05-24T05:50:02.704Z,2310
2023-05-24T05:55:02.926Z,2010
2023-05-24T06:00:03.305Z,2173.33
2023-05-24T06:05:03.249Z,2200
2023-05-24T06:10:02.926Z,2830
2023-05-24T06:15:02.811Z,2961.67
2023-05-24T06:20:03.101Z,3771.67
2023-05-24T06:25:02.596Z,4466.67
2023-05-24T06:30:03.332Z,5561.67
2023-05-24T06:35:03.221Z,6046.67
2023-05-24T06:40:03.007Z,5951.67
2023-05-24T06:45:02.819Z,5220
2023-05-24T06:50:02.568Z,4385
2023-05-24T06:55:03.184Z,4641.67
2023-05-24T07:00:03.551Z,4483.33
2023-05-24T07:05:03.258Z,4718.33
2023-05-24T07:10:02.699Z,5360
2023-05-24T07:15:02.723Z,6795
2023-05-24T07:20:02.779Z,8696.67
2023-05-24T07:25:03.396Z,8620
2023-05-24T07:30:03.263Z,8295
2023-05-24T07:35:03.152Z,9060
2023-05-24T07:40:03.032Z,9873.33
2023-05-24T07:45:03.156Z,10338.33
2023-05-24T07:50:02.506Z,10540
2023-05-24T07:55:04.077Z,10661.67
2023-05-24T08:00:03.138Z,9885
2023-05-24T08:05:02.984Z,11998.33
2023-05-24T08:10:02.772Z,12431.67
2023-05-24T08:15:02.615Z,11008.33
2023-05-24T08:20:02.799Z,10066.67
2023-05-24T08:25:02.702Z,8920
2023-05-24T08:30:03.337Z,7328.33
2023-05-24T08:35:21.352Z,6173.33
2023-05-24T08:40:03.084Z,6573.33
2023-05-24T08:45:03.402Z,5510
2023-05-24T08:50:03.306Z,6763.33
2023-05-24T08:55:04.001Z,6251.67
2023-05-24T09:00:02.853Z,9471.67
2023-05-24T09:05:02.547Z,11426.67
2023-05-24T09:10:03.523Z,11791.67
2023-05-24T09:15:03.012Z,11368.33
2023-05-24T09:20:03.028Z,11351.67
2023-05-24T09:25:02.601Z,12651.67
2023-05-24T09:30:03.359Z,29120
2023-05-24T09:35:02.979Z,36270
2023-05-24T09:40:02.696Z,13215
2023-05-24T09:45:02.459Z,9598.33
2023-05-24T09:50:03.189Z,8960
2023-05-24T09:55:03.799Z,9078.33
2023-05-24T10:00:02.652Z,9553.33
2023-05-24T10:05:02.591Z,7696.67
2023-05-24T10:10:07.558Z,9753.33
2023-05-24T10:15:02.713Z,12453.33
2023-05-24T10:20:03.430Z,12716.67
2023-05-24T10:25:03.176Z,30356.67
2023-05-24T10:30:05.789Z,40093.33
2023-05-24T10:35:03.284Z,13565
2023-05-24T10:40:03.014Z,28766.67
2023-05-24T10:45:02.972Z,31350
2023-05-24T10:50:03.216Z,35293.33
2023-05-24T10:55:06.579Z,27556.67
2023-05-24T11:00:03.030Z,12830
2023-05-24T11:05:02.892Z,9783.33
2023-05-24T11:10:02.752Z,8325
2023-05-24T11:15:03.269Z,9498.33
2023-05-24T11:20:03.068Z,11145
2023-05-24T11:25:02.651Z,13575
2023-05-24T11:30:03.427Z,32193.33
2023-05-24T11:35:03.361Z,72390.7
2023-05-24T11:40:03.139Z,12046.67
2023-05-24T11:45:02.800Z,101733.67
2023-05-24T11:50:02.550Z,106723.59
2023-05-24T11:55:03.660Z,30200
2023-05-24T12:00:08.236Z,73968.36
2023-05-24T12:05:03.242Z,12400
2023-05-24T12:10:03.048Z,8295
2023-05-24T12:15:02.767Z,7320
2023-05-24T12:20:02.559Z,8888.33
2023-05-24T12:25:03.198Z,10255
2023-05-24T12:30:03.167Z,27830
2023-05-24T12:35:03.166Z,43356.67
2023-05-24T12:40:02.785Z,65178.05
2023-05-24T12:45:02.732Z,66710.78
2023-05-24T12:50:03.364Z,7756.67
2023-05-24T12:55:03.836Z,6013.33
2023-05-24T13:00:02.948Z,7061.67
2023-05-24T13:05:02.941Z,9248.33
2023-05-24T13:10:02.856Z,11626.67
2023-05-24T13:15:08.187Z,7893.33
2023-05-24T13:20:03.297Z,9121.67
2023-05-24T13:25:02.976Z,9090
2023-05-24T13:30:02.797Z,9650
2023-05-24T13:35:08.940Z,10548.33
2023-05-24T13:40:02.659Z,41546.67
2023-05-24T13:45:03.417Z,58486.48
2023-05-24T13:50:02.873Z,58863.83
2023-05-24T13:55:03.593Z,38960
2023-05-24T14:00:02.777Z,59501.72
2023-05-24T14:05:27.205Z,63169.14
2023-05-24T14:10:03.144Z,33280
2023-05-24T14:15:02.923Z,31613.33
2023-05-24T14:20:02.814Z,44926.67
2023-05-24T14:25:02.534Z,42593.33
2023-05-24T14:30:02.662Z,39693.33
2023-05-24T14:35:02.375Z,39920
2023-05-24T14:40:02.643Z,39746.67
2023-05-24T14:45:03.275Z,38990
2023-05-24T14:50:03.157Z,40833.33
2023-05-24T14:55:03.690Z,6973.33
2023-05-24T15:00:02.721Z,7396.67
2023-05-24T15:05:02.599Z,7401.67
2023-05-24T15:10:02.540Z,10213.33
2023-05-24T15:15:03.181Z,10183.33
2023-05-24T15:20:03.207Z,27316.67
2023-05-24T15:30:02.717Z,30913.33
2023-05-24T15:35:02.813Z,10685
2023-05-24T15:40:02.436Z,7160
2023-05-24T15:45:03.467Z,5961.67
2023-05-24T15:50:02.988Z,5796.67
2023-05-24T15:55:03.541Z,5040
2023-05-24T16:00:02.384Z,5261.67
2023-05-24T16:05:03.221Z,5516.67
2023-05-24T16:10:02.928Z,4390
2023-05-24T16:15:02.786Z,3625
2023-05-24T16:20:02.794Z,2825
2023-05-24T16:25:02.455Z,3213.33
2023-05-24T16:30:03.155Z,3285
2023-05-24T16:35:02.893Z,3935
2023-05-24T16:40:03.008Z,7938.33
2023-05-24T16:45:03.040Z,4398.33
2023-05-24T16:50:02.671Z,4380
2023-05-24T16:55:02.740Z,4065
2023-05-24T17:00:02.988Z,3120
2023-05-24T17:05:02.425Z,2791.67
2023-05-24T17:10:03.254Z,2516.67
2023-05-24T17:15:03.139Z,2926.67
2023-05-24T17:20:03.008Z,6396.67
2023-05-24T17:25:02.585Z,4806.67
2023-05-24T17:30:03.314Z,3955
2023-05-24T17:35:03.261Z,3456.67
2023-05-24T17:40:03.166Z,2966.67
2023-05-24T17:45:03.116Z,2620
2023-05-24T17:50:02.771Z,2318.33
2023-05-24T17:55:03.488Z,2111.67
2023-05-24T18:00:02.556Z,1910
2023-05-24T18:05:03.376Z,1745
2023-05-24T18:10:03.235Z,1378.33
2023-05-24T18:15:02.798Z,1235
2023-05-24T18:20:02.682Z,1066.67
2023-05-24T18:25:03.288Z,925
2023-05-24T18:30:03.257Z,786.67
2023-05-24T18:35:02.842Z,660
2023-05-24T18:40:02.792Z,543.33
2023-05-24T18:45:02.424Z,440
2023-05-24T18:50:03.114Z,351.67
2023-05-24T18:55:03.662Z,268.33
2023-05-24T19:00:03.110Z,203.33
2023-05-24T19:05:02.810Z,146.67
2023-05-24T19:10:02.669Z,101.67
2023-05-24T19:15:02.500Z,68.33
2023-05-24T19:20:03.473Z,43.33
2023-05-24T19:25:03.172Z,25
2023-05-24T19:30:03.083Z,15
2023-05-24T19:35:02.800Z,6.67
2023-05-24T19:40:03.001Z,9.28
2023-05-24T19:45:03.412Z,4.87
2023-05-24T19:50:03.164Z,2.49
2023-05-24T19:55:03.544Z,1.13
2023-05-24T20:00:02.583Z,0.57
2023-05-24T20:05:03.371Z,0.23
2023-05-24T20:10:03.089Z,0
2023-05-24T20:15:02.893Z,0
2023-05-24T20:20:03.028Z,0
2023-05-24T20:25:02.558Z,0
2023-05-24T20:30:03.630Z,0
2023-05-24T20:35:03.012Z,0
2023-05-24T20:40:02.732Z,0
2023-05-24T20:45:02.852Z,0
2023-05-24T20:50:02.633Z,0
2023-05-24T20:55:03.938Z,0
2023-05-24T21:00:03.222Z,0
2023-05-24T21:05:03.131Z,0
2023-05-24T21:10:02.956Z,0
2023-05-24T21:15:02.744Z,0
2023-05-24T21:20:02.593Z,0
2023-05-24T21:25:02.535Z,0
2023-05-24T21:30:03.235Z,0
2023-05-24T21:35:02.644Z,0
2023-05-24T21:40:03.186Z,0
2023-05-24T21:45:03.040Z,0
2023-05-24T21:50:03.115Z,0
2023-05-24T21:55:03.011Z,0
2023-05-24T22:00:03.312Z,0
2023-05-24T22:05:02.621Z,0
2023-05-24T22:10:02.417Z,0
2023-05-24T22:15:03.358Z,0
2023-05-24T22:20:03.272Z,0
2023-05-24T22:25:02.914Z,0
2023-05-24T22:30:03.096Z,0
2023-05-24T22:35:02.540Z,0
2023-05-24T22:40:03.233Z,0
2023-05-24T22:45:03.182Z,0
2023-05-24T22:50:03.108Z,0
2023-05-24T22:55:02.949Z,0
2023-05-24T23:00:02.641Z,0
2023-05-24T23:05:02.451Z,0
2023-05-24T23:10:02.660Z,0
2023-05-24T23:15:02.585Z,0
2023-05-24T23:20:02.529Z,0
2023-05-24T23:25:03.184Z,0
2023-05-24T23:30:02.937Z,0
2023-05-24T23:35:02.742Z,0
2023-05-24T23:40:02.549Z,0
2023-05-24T23:45:03.381Z,0
2023-05-24T23:50:03.172Z,0
2023-05-24T23:55:03.250Z,0
